sensor_id;sensor_type;location;lat;lon;timestamp;temperature;humidity
12060;DHT22;6091;51.432;6.880;2023-08-06T00:02:26;26.20;45.80
12060;DHT22;6091;51.432;6.880;2023-08-06T00:04:53;26.20;45.80
12060;DHT22;6091;51.432;6.880;2023-08-06T00:07:20;26.20;45.90
12060;DHT22;6091;51.432;6.880;2023-08-06T00:09:48;26.20;45.80
12060;DHT22;6091;51.432;6.880;2023-08-06T00:12:15;26.20;45.80
12060;DHT22;6091;51.432;6.880;2023-08-06T00:14:42;26.20;45.80
12060;DHT22;6091;51.432;6.880;2023-08-06T00:17:10;26.20;45.90
12060;DHT22;6091;51.432;6.880;2023-08-06T00:19:37;26.20;45.80
12060;DHT22;6091;51.432;6.880;2023-08-06T00:22:04;26.40;46.00
12060;DHT22;6091;51.432;6.880;2023-08-06T00:24:32;26.20;45.90
12060;DHT22;6091;51.432;6.880;2023-08-06T00:26:58;26.20;45.90
12060;DHT22;6091;51.432;6.880;2023-08-06T00:29:25;26.20;45.90
12060;DHT22;6091;51.432;6.880;2023-08-06T00:31:53;26.20;45.90
12060;DHT22;6091;51.432;6.880;2023-08-06T00:34:20;26.20;45.90
12060;DHT22;6091;51.432;6.880;2023-08-06T00:36:47;26.20;45.90
12060;DHT22;6091;51.432;6.880;2023-08-06T00:39:14;26.20;45.90
12060;DHT22;6091;51.432;6.880;2023-08-06T00:41:41;26.20;45.90
12060;DHT22;6091;51.432;6.880;2023-08-06T00:44:08;26.20;45.90
12060;DHT22;6091;51.432;6.880;2023-08-06T00:46:35;26.20;45.90
12060;DHT22;6091;51.432;6.880;2023-08-06T00:49:02;26.20;45.90
12060;DHT22;6091;51.432;6.880;2023-08-06T00:51:30;26.20;45.90
12060;DHT22;6091;51.432;6.880;2023-08-06T00:53:57;26.20;45.90
12060;DHT22;6091;51.432;6.880;2023-08-06T00:56:24;26.10;45.80
12060;DHT22;6091;51.432;6.880;2023-08-06T00:58:52;26.20;45.90
12060;DHT22;6091;51.432;6.880;2023-08-06T01:01:19;26.20;45.90
12060;DHT22;6091;51.432;6.880;2023-08-06T01:03:46;26.20;45.90
12060;DHT22;6091;51.432;6.880;2023-08-06T01:06:15;26.10;45.90
12060;DHT22;6091;51.432;6.880;2023-08-06T01:08:55;26.10;45.90
12060;DHT22;6091;51.432;6.880;2023-08-06T01:14:18;26.20;45.90
12060;DHT22;6091;51.432;6.880;2023-08-06T01:16:58;26.20;45.90
12060;DHT22;6091;51.432;6.880;2023-08-06T01:19:26;26.20;45.90
12060;DHT22;6091;51.432;6.880;2023-08-06T01:21:53;26.10;45.90
12060;DHT22;6091;51.432;6.880;2023-08-06T01:24:20;26.20;45.90
12060;DHT22;6091;51.432;6.880;2023-08-06T01:27:06;26.20;45.90
12060;DHT22;6091;51.432;6.880;2023-08-06T01:30:03;26.20;46.00
12060;DHT22;6091;51.432;6.880;2023-08-06T01:32:39;26.10;45.90
12060;DHT22;6091;51.432;6.880;2023-08-06T01:35:12;26.10;45.90
12060;DHT22;6091;51.432;6.880;2023-08-06T01:37:41;26.10;45.90
12060;DHT22;6091;51.432;6.880;2023-08-06T01:40:12;26.10;45.90
12060;DHT22;6091;51.432;6.880;2023-08-06T01:42:40;26.10;45.90
12060;DHT22;6091;51.432;6.880;2023-08-06T01:45:08;26.10;45.90
12060;DHT22;6091;51.432;6.880;2023-08-06T01:47:36;26.10;45.90
12060;DHT22;6091;51.432;6.880;2023-08-06T01:50:03;26.10;45.90
12060;DHT22;6091;51.432;6.880;2023-08-06T01:52:31;26.10;45.90
12060;DHT22;6091;51.432;6.880;2023-08-06T01:54:58;26.10;45.90
12060;DHT22;6091;51.432;6.880;2023-08-06T01:57:25;26.10;45.90
12060;DHT22;6091;51.432;6.880;2023-08-06T01:59:52;26.10;45.90
12060;DHT22;6091;51.432;6.880;2023-08-06T02:02:19;26.10;45.90
12060;DHT22;6091;51.432;6.880;2023-08-06T02:04:46;26.10;45.90
12060;DHT22;6091;51.432;6.880;2023-08-06T02:07:13;26.10;45.90
12060;DHT22;6091;51.432;6.880;2023-08-06T02:09:44;26.10;45.90
12060;DHT22;6091;51.432;6.880;2023-08-06T02:12:13;26.10;46.00
12060;DHT22;6091;51.432;6.880;2023-08-06T02:14:42;26.00;45.90
12060;DHT22;6091;51.432;6.880;2023-08-06T02:17:10;26.00;45.90
12060;DHT22;6091;51.432;6.880;2023-08-06T02:19:37;26.10;45.90
12060;DHT22;6091;51.432;6.880;2023-08-06T02:22:04;26.00;45.90
12060;DHT22;6091;51.432;6.880;2023-08-06T02:24:31;26.10;46.00
12060;DHT22;6091;51.432;6.880;2023-08-06T02:26:58;26.10;45.90
12060;DHT22;6091;51.432;6.880;2023-08-06T02:29:27;26.00;45.90
12060;DHT22;6091;51.432;6.880;2023-08-06T02:31:53;26.00;45.90
12060;DHT22;6091;51.432;6.880;2023-08-06T02:34:21;26.00;45.90
12060;DHT22;6091;51.432;6.880;2023-08-06T02:36:48;26.00;45.90
12060;DHT22;6091;51.432;6.880;2023-08-06T02:39:15;26.00;45.90
12060;DHT22;6091;51.432;6.880;2023-08-06T02:41:42;26.10;46.00
12060;DHT22;6091;51.432;6.880;2023-08-06T02:44:09;26.10;46.00
12060;DHT22;6091;51.432;6.880;2023-08-06T02:46:36;26.10;46.00
12060;DHT22;6091;51.432;6.880;2023-08-06T02:49:03;26.00;45.90
12060;DHT22;6091;51.432;6.880;2023-08-06T02:51:30;26.00;45.90
12060;DHT22;6091;51.432;6.880;2023-08-06T02:53:57;26.00;45.90
12060;DHT22;6091;51.432;6.880;2023-08-06T02:56:24;26.00;45.90
12060;DHT22;6091;51.432;6.880;2023-08-06T02:58:52;26.00;46.00
12060;DHT22;6091;51.432;6.880;2023-08-06T03:01:19;26.00;46.00
12060;DHT22;6091;51.432;6.880;2023-08-06T03:03:46;26.00;46.00
12060;DHT22;6091;51.432;6.880;2023-08-06T03:06:13;26.00;46.00
12060;DHT22;6091;51.432;6.880;2023-08-06T03:08:40;26.00;46.00
12060;DHT22;6091;51.432;6.880;2023-08-06T03:11:07;26.00;46.00
12060;DHT22;6091;51.432;6.880;2023-08-06T03:13:34;26.00;46.00
12060;DHT22;6091;51.432;6.880;2023-08-06T03:16:01;26.00;46.00
12060;DHT22;6091;51.432;6.880;2023-08-06T03:18:28;26.00;46.00
12060;DHT22;6091;51.432;6.880;2023-08-06T03:20:55;26.00;46.00
12060;DHT22;6091;51.432;6.880;2023-08-06T03:23:22;26.00;46.00
12060;DHT22;6091;51.432;6.880;2023-08-06T03:25:49;26.00;46.00
12060;DHT22;6091;51.432;6.880;2023-08-06T03:28:16;26.00;46.00
12060;DHT22;6091;51.432;6.880;2023-08-06T03:30:45;26.00;46.00
12060;DHT22;6091;51.432;6.880;2023-08-06T03:33:12;26.00;46.00
12060;DHT22;6091;51.432;6.880;2023-08-06T03:35:39;26.00;46.00
12060;DHT22;6091;51.432;6.880;2023-08-06T03:38:06;26.00;46.00
12060;DHT22;6091;51.432;6.880;2023-08-06T03:40:35;26.00;46.00
12060;DHT22;6091;51.432;6.880;2023-08-06T03:43:02;26.00;46.00
12060;DHT22;6091;51.432;6.880;2023-08-06T03:45:32;26.00;46.00
12060;DHT22;6091;51.432;6.880;2023-08-06T03:47:59;26.00;46.00
12060;DHT22;6091;51.432;6.880;2023-08-06T03:50:26;26.00;46.00
12060;DHT22;6091;51.432;6.880;2023-08-06T03:52:53;26.00;46.00
12060;DHT22;6091;51.432;6.880;2023-08-06T03:55:21;26.00;46.00
12060;DHT22;6091;51.432;6.880;2023-08-06T03:57:48;26.00;46.00
12060;DHT22;6091;51.432;6.880;2023-08-06T04:00:15;26.00;46.00
12060;DHT22;6091;51.432;6.880;2023-08-06T04:02:42;26.00;46.10
12060;DHT22;6091;51.432;6.880;2023-08-06T04:05:10;26.00;46.10
12060;DHT22;6091;51.432;6.880;2023-08-06T04:07:37;26.00;46.00
12060;DHT22;6091;51.432;6.880;2023-08-06T04:10:04;26.00;46.10
12060;DHT22;6091;51.432;6.880;2023-08-06T04:12:32;26.00;46.00
12060;DHT22;6091;51.432;6.880;2023-08-06T04:15:03;26.00;46.10
12060;DHT22;6091;51.432;6.880;2023-08-06T04:17:30;26.00;46.10
12060;DHT22;6091;51.432;6.880;2023-08-06T04:19:57;26.00;46.00
12060;DHT22;6091;51.432;6.880;2023-08-06T04:22:29;26.00;46.10
12060;DHT22;6091;51.432;6.880;2023-08-06T04:24:56;25.90;46.00
12060;DHT22;6091;51.432;6.880;2023-08-06T04:27:23;25.90;46.00
12060;DHT22;6091;51.432;6.880;2023-08-06T04:29:50;26.00;46.10
12060;DHT22;6091;51.432;6.880;2023-08-06T04:32:17;26.00;46.10
12060;DHT22;6091;51.432;6.880;2023-08-06T04:34:46;26.00;46.10
12060;DHT22;6091;51.432;6.880;2023-08-06T04:37:13;25.90;46.00
12060;DHT22;6091;51.432;6.880;2023-08-06T04:39:40;25.90;46.10
12060;DHT22;6091;51.432;6.880;2023-08-06T04:42:07;25.90;46.10
12060;DHT22;6091;51.432;6.880;2023-08-06T04:44:34;25.90;46.10
12060;DHT22;6091;51.432;6.880;2023-08-06T04:47:01;25.90;46.10
12060;DHT22;6091;51.432;6.880;2023-08-06T04:49:28;25.90;46.10
12060;DHT22;6091;51.432;6.880;2023-08-06T04:51:55;25.90;46.10
12060;DHT22;6091;51.432;6.880;2023-08-06T04:54:22;25.90;46.10
12060;DHT22;6091;51.432;6.880;2023-08-06T04:56:49;26.00;46.20
12060;DHT22;6091;51.432;6.880;2023-08-06T04:59:16;25.90;46.10
12060;DHT22;6091;51.432;6.880;2023-08-06T05:01:43;25.90;46.10
12060;DHT22;6091;51.432;6.880;2023-08-06T05:04:10;25.90;46.20
12060;DHT22;6091;51.432;6.880;2023-08-06T05:06:37;25.90;46.10
12060;DHT22;6091;51.432;6.880;2023-08-06T05:09:07;25.90;46.10
12060;DHT22;6091;51.432;6.880;2023-08-06T05:11:35;25.90;46.10
12060;DHT22;6091;51.432;6.880;2023-08-06T05:14:02;25.90;46.10
12060;DHT22;6091;51.432;6.880;2023-08-06T05:16:29;26.00;46.20
12060;DHT22;6091;51.432;6.880;2023-08-06T05:18:56;25.90;46.10
12060;DHT22;6091;51.432;6.880;2023-08-06T05:21:23;25.90;46.10
12060;DHT22;6091;51.432;6.880;2023-08-06T05:23:50;26.00;46.20
12060;DHT22;6091;51.432;6.880;2023-08-06T05:26:18;25.90;46.20
12060;DHT22;6091;51.432;6.880;2023-08-06T05:28:46;25.90;46.10
12060;DHT22;6091;51.432;6.880;2023-08-06T05:31:13;26.00;46.20
12060;DHT22;6091;51.432;6.880;2023-08-06T05:33:40;26.00;46.20
12060;DHT22;6091;51.432;6.880;2023-08-06T05:36:07;25.90;46.10
12060;DHT22;6091;51.432;6.880;2023-08-06T05:38:34;25.90;46.10
12060;DHT22;6091;51.432;6.880;2023-08-06T05:41:01;25.90;46.10
12060;DHT22;6091;51.432;6.880;2023-08-06T05:43:28;25.90;46.10
12060;DHT22;6091;51.432;6.880;2023-08-06T05:45:56;25.90;46.10
12060;DHT22;6091;51.432;6.880;2023-08-06T05:48:23;25.90;46.10
12060;DHT22;6091;51.432;6.880;2023-08-06T05:50:52;25.90;46.10
12060;DHT22;6091;51.432;6.880;2023-08-06T05:53:19;25.90;46.10
12060;DHT22;6091;51.432;6.880;2023-08-06T05:55:46;26.00;46.20
12060;DHT22;6091;51.432;6.880;2023-08-06T05:58:14;25.90;46.10
12060;DHT22;6091;51.432;6.880;2023-08-06T06:00:41;25.90;46.10
12060;DHT22;6091;51.432;6.880;2023-08-06T06:03:08;26.00;46.20
12060;DHT22;6091;51.432;6.880;2023-08-06T06:05:37;26.00;46.20
12060;DHT22;6091;51.432;6.880;2023-08-06T06:08:05;26.00;46.20
12060;DHT22;6091;51.432;6.880;2023-08-06T06:10:32;26.00;46.20
12060;DHT22;6091;51.432;6.880;2023-08-06T06:12:59;26.00;46.20
12060;DHT22;6091;51.432;6.880;2023-08-06T06:15:26;25.90;46.10
12060;DHT22;6091;51.432;6.880;2023-08-06T06:17:53;26.00;46.20
12060;DHT22;6091;51.432;6.880;2023-08-06T06:20:20;26.00;46.20
12060;DHT22;6091;51.432;6.880;2023-08-06T06:22:47;25.90;46.10
12060;DHT22;6091;51.432;6.880;2023-08-06T06:25:14;25.90;46.10
12060;DHT22;6091;51.432;6.880;2023-08-06T06:27:41;26.00;46.20
12060;DHT22;6091;51.432;6.880;2023-08-06T06:30:08;26.00;46.20
12060;DHT22;6091;51.432;6.880;2023-08-06T06:32:35;26.00;46.20
12060;DHT22;6091;51.432;6.880;2023-08-06T06:35:02;25.90;46.10
12060;DHT22;6091;51.432;6.880;2023-08-06T06:37:31;26.00;46.20
12060;DHT22;6091;51.432;6.880;2023-08-06T06:39:58;26.00;46.20
12060;DHT22;6091;51.432;6.880;2023-08-06T06:42:26;26.00;46.20
12060;DHT22;6091;51.432;6.880;2023-08-06T06:44:53;25.90;46.10
12060;DHT22;6091;51.432;6.880;2023-08-06T06:47:21;26.00;46.20
12060;DHT22;6091;51.432;6.880;2023-08-06T06:49:48;26.00;46.20
12060;DHT22;6091;51.432;6.880;2023-08-06T06:52:16;26.00;46.20
12060;DHT22;6091;51.432;6.880;2023-08-06T06:54:43;26.00;46.20
12060;DHT22;6091;51.432;6.880;2023-08-06T06:57:09;26.00;46.20
12060;DHT22;6091;51.432;6.880;2023-08-06T06:59:36;26.00;46.20
12060;DHT22;6091;51.432;6.880;2023-08-06T07:02:07;26.00;46.20
12060;DHT22;6091;51.432;6.880;2023-08-06T07:04:34;26.00;46.20
12060;DHT22;6091;51.432;6.880;2023-08-06T07:07:01;26.00;46.20
12060;DHT22;6091;51.432;6.880;2023-08-06T07:09:28;26.00;46.20
12060;DHT22;6091;51.432;6.880;2023-08-06T07:11:55;26.00;46.20
12060;DHT22;6091;51.432;6.880;2023-08-06T07:14:25;26.00;46.20
12060;DHT22;6091;51.432;6.880;2023-08-06T07:16:52;26.00;46.20
12060;DHT22;6091;51.432;6.880;2023-08-06T07:19:19;26.10;46.20
12060;DHT22;6091;51.432;6.880;2023-08-06T07:21:47;26.10;46.20
12060;DHT22;6091;51.432;6.880;2023-08-06T07:24:14;26.10;46.30
12060;DHT22;6091;51.432;6.880;2023-08-06T07:26:42;26.00;46.40
12060;DHT22;6091;51.432;6.880;2023-08-06T07:29:09;26.10;46.50
12060;DHT22;6091;51.432;6.880;2023-08-06T07:31:36;26.10;46.60
12060;DHT22;6091;51.432;6.880;2023-08-06T07:34:03;26.10;46.70
12060;DHT22;6091;51.432;6.880;2023-08-06T07:36:30;26.10;46.70
12060;DHT22;6091;51.432;6.880;2023-08-06T07:38:57;26.10;46.80
12060;DHT22;6091;51.432;6.880;2023-08-06T07:41:25;26.20;46.90
12060;DHT22;6091;51.432;6.880;2023-08-06T07:43:52;26.20;46.90
12060;DHT22;6091;51.432;6.880;2023-08-06T07:46:19;26.20;46.90
12060;DHT22;6091;51.432;6.880;2023-08-06T07:48:46;26.20;46.90
12060;DHT22;6091;51.432;6.880;2023-08-06T07:51:13;26.20;46.80
12060;DHT22;6091;51.432;6.880;2023-08-06T07:53:40;26.30;46.80
12060;DHT22;6091;51.432;6.880;2023-08-06T07:56:07;26.30;46.80
12060;DHT22;6091;51.432;6.880;2023-08-06T07:58:35;26.30;46.70
12060;DHT22;6091;51.432;6.880;2023-08-06T08:01:02;26.30;46.70
12060;DHT22;6091;51.432;6.880;2023-08-06T08:03:31;26.40;46.60
12060;DHT22;6091;51.432;6.880;2023-08-06T08:05:58;26.40;46.60
12060;DHT22;6091;51.432;6.880;2023-08-06T08:08:25;26.40;46.50
12060;DHT22;6091;51.432;6.880;2023-08-06T08:10:57;26.50;46.70
12060;DHT22;6091;51.432;6.880;2023-08-06T08:13:25;26.40;46.50
12060;DHT22;6091;51.432;6.880;2023-08-06T08:15:59;26.50;46.50
12060;DHT22;6091;51.432;6.880;2023-08-06T08:18:28;26.50;46.40
12060;DHT22;6091;51.432;6.880;2023-08-06T08:20:56;26.50;46.40
12060;DHT22;6091;51.432;6.880;2023-08-06T08:23:23;26.50;46.40
12060;DHT22;6091;51.432;6.880;2023-08-06T08:25:50;26.60;46.40
12060;DHT22;6091;51.432;6.880;2023-08-06T08:28:18;26.60;46.40
12060;DHT22;6091;51.432;6.880;2023-08-06T08:30:45;26.60;46.30
12060;DHT22;6091;51.432;6.880;2023-08-06T08:33:12;26.60;46.30
12060;DHT22;6091;51.432;6.880;2023-08-06T08:35:39;26.60;46.30
12060;DHT22;6091;51.432;6.880;2023-08-06T08:38:07;26.60;46.20
12060;DHT22;6091;51.432;6.880;2023-08-06T08:40:37;26.60;46.20
12060;DHT22;6091;51.432;6.880;2023-08-06T08:43:14;26.60;46.10
12060;DHT22;6091;51.432;6.880;2023-08-06T08:45:42;26.70;46.20
12060;DHT22;6091;51.432;6.880;2023-08-06T08:48:12;26.70;46.20
12060;DHT22;6091;51.432;6.880;2023-08-06T08:50:44;26.70;46.20
12060;DHT22;6091;51.432;6.880;2023-08-06T08:53:15;26.70;46.10
12060;DHT22;6091;51.432;6.880;2023-08-06T08:55:46;26.80;46.10
12060;DHT22;6091;51.432;6.880;2023-08-06T08:58:15;26.70;46.10
12060;DHT22;6091;51.432;6.880;2023-08-06T09:00:42;26.80;46.00
12060;DHT22;6091;51.432;6.880;2023-08-06T09:03:12;26.70;46.00
12060;DHT22;6091;51.432;6.880;2023-08-06T09:05:45;26.80;45.90
12060;DHT22;6091;51.432;6.880;2023-08-06T09:08:21;26.80;45.80
12060;DHT22;6091;51.432;6.880;2023-08-06T09:10:56;26.80;45.90
12060;DHT22;6091;51.432;6.880;2023-08-06T09:13:24;26.80;45.80
12060;DHT22;6091;51.432;6.880;2023-08-06T09:16:19;26.80;45.80
12060;DHT22;6091;51.432;6.880;2023-08-06T09:19:10;26.80;45.70
12060;DHT22;6091;51.432;6.880;2023-08-06T09:21:45;26.80;46.30
12060;DHT22;6091;51.432;6.880;2023-08-06T09:24:16;26.70;45.70
12060;DHT22;6091;51.432;6.880;2023-08-06T09:26:44;26.70;45.70
12060;DHT22;6091;51.432;6.880;2023-08-06T09:29:11;26.70;45.70
12060;DHT22;6091;51.432;6.880;2023-08-06T09:31:46;26.70;45.70
12060;DHT22;6091;51.432;6.880;2023-08-06T09:34:19;26.70;45.70
12060;DHT22;6091;51.432;6.880;2023-08-06T09:36:51;26.60;45.70
12060;DHT22;6091;51.432;6.880;2023-08-06T09:39:30;26.60;45.70
12060;DHT22;6091;51.432;6.880;2023-08-06T09:42:01;26.60;45.80
12060;DHT22;6091;51.432;6.880;2023-08-06T09:44:30;26.60;45.70
12060;DHT22;6091;51.432;6.880;2023-08-06T09:47:03;26.60;45.80
12060;DHT22;6091;51.432;6.880;2023-08-06T09:51:59;26.60;45.80
12060;DHT22;6091;51.432;6.880;2023-08-06T09:54:27;26.60;45.80
12060;DHT22;6091;51.432;6.880;2023-08-06T09:56:56;26.60;45.80
12060;DHT22;6091;51.432;6.880;2023-08-06T09:59:24;26.60;45.80
12060;DHT22;6091;51.432;6.880;2023-08-06T10:01:54;26.60;45.80
12060;DHT22;6091;51.432;6.880;2023-08-06T10:04:24;26.60;45.90
12060;DHT22;6091;51.432;6.880;2023-08-06T10:07:01;26.60;45.80
12060;DHT22;6091;51.432;6.880;2023-08-06T10:09:28;26.60;45.80
12060;DHT22;6091;51.432;6.880;2023-08-06T10:11:57;26.60;45.90
12060;DHT22;6091;51.432;6.880;2023-08-06T10:14:28;26.60;45.80
12060;DHT22;6091;51.432;6.880;2023-08-06T10:16:59;26.60;45.80
12060;DHT22;6091;51.432;6.880;2023-08-06T10:19:27;26.70;45.90
12060;DHT22;6091;51.432;6.880;2023-08-06T10:22:13;26.70;45.90
12060;DHT22;6091;51.432;6.880;2023-08-06T10:24:55;26.80;45.80
12060;DHT22;6091;51.432;6.880;2023-08-06T10:30:32;26.80;45.70
12060;DHT22;6091;51.432;6.880;2023-08-06T10:33:03;26.80;45.70
12060;DHT22;6091;51.432;6.880;2023-08-06T10:35:40;26.90;45.70
12060;DHT22;6091;51.432;6.880;2023-08-06T10:38:18;26.90;45.70
12060;DHT22;6091;51.432;6.880;2023-08-06T10:43:35;26.90;45.60
12060;DHT22;6091;51.432;6.880;2023-08-06T10:46:10;26.90;45.60
12060;DHT22;6091;51.432;6.880;2023-08-06T10:48:39;26.90;45.60
12060;DHT22;6091;51.432;6.880;2023-08-06T10:51:12;27.00;45.70
12060;DHT22;6091;51.432;6.880;2023-08-06T10:53:45;26.90;45.60
12060;DHT22;6091;51.432;6.880;2023-08-06T10:56:22;27.00;45.70
12060;DHT22;6091;51.432;6.880;2023-08-06T10:58:53;27.00;45.60
12060;DHT22;6091;51.432;6.880;2023-08-06T11:01:23;27.00;45.60
12060;DHT22;6091;51.432;6.880;2023-08-06T11:03:51;27.00;45.60
12060;DHT22;6091;51.432;6.880;2023-08-06T11:06:21;27.10;45.60
12060;DHT22;6091;51.432;6.880;2023-08-06T11:08:51;27.10;45.50
12060;DHT22;6091;51.432;6.880;2023-08-06T11:11:23;27.10;45.50
12060;DHT22;6091;51.432;6.880;2023-08-06T11:13:51;27.00;45.40
12060;DHT22;6091;51.432;6.880;2023-08-06T11:16:20;27.10;45.40
12060;DHT22;6091;51.432;6.880;2023-08-06T11:18:51;27.10;45.30
12060;DHT22;6091;51.432;6.880;2023-08-06T11:21:22;27.00;45.20
12060;DHT22;6091;51.432;6.880;2023-08-06T11:23:52;27.00;45.20
12060;DHT22;6091;51.432;6.880;2023-08-06T11:26:20;27.00;45.20
12060;DHT22;6091;51.432;6.880;2023-08-06T11:28:48;27.00;45.20
12060;DHT22;6091;51.432;6.880;2023-08-06T11:31:22;27.00;45.20
12060;DHT22;6091;51.432;6.880;2023-08-06T11:33:51;26.90;45.20
12060;DHT22;6091;51.432;6.880;2023-08-06T11:36:32;26.90;45.20
12060;DHT22;6091;51.432;6.880;2023-08-06T11:39:00;26.90;45.20
12060;DHT22;6091;51.432;6.880;2023-08-06T11:41:29;26.90;45.20
12060;DHT22;6091;51.432;6.880;2023-08-06T11:43:58;26.80;45.20
12060;DHT22;6091;51.432;6.880;2023-08-06T11:46:25;26.80;45.20
12060;DHT22;6091;51.432;6.880;2023-08-06T11:48:54;26.80;45.20
12060;DHT22;6091;51.432;6.880;2023-08-06T11:51:23;26.80;45.30
12060;DHT22;6091;51.432;6.880;2023-08-06T11:53:58;26.70;45.30
12060;DHT22;6091;51.432;6.880;2023-08-06T11:56:26;26.70;45.30
12060;DHT22;6091;51.432;6.880;2023-08-06T11:58:54;26.70;45.30
12060;DHT22;6091;51.432;6.880;2023-08-06T12:01:22;26.60;45.30
12060;DHT22;6091;51.432;6.880;2023-08-06T12:03:49;26.60;45.30
12060;DHT22;6091;51.432;6.880;2023-08-06T12:06:16;26.60;45.30
12060;DHT22;6091;51.432;6.880;2023-08-06T12:08:43;26.60;45.40
12060;DHT22;6091;51.432;6.880;2023-08-06T12:11:13;26.60;45.40
12060;DHT22;6091;51.432;6.880;2023-08-06T12:13:41;26.60;45.40
12060;DHT22;6091;51.432;6.880;2023-08-06T12:16:08;26.50;45.40
12060;DHT22;6091;51.432;6.880;2023-08-06T12:18:35;26.50;45.40
12060;DHT22;6091;51.432;6.880;2023-08-06T12:21:02;26.50;45.50
12060;DHT22;6091;51.432;6.880;2023-08-06T12:23:29;26.50;45.50
12060;DHT22;6091;51.432;6.880;2023-08-06T12:25:59;26.50;45.50
12060;DHT22;6091;51.432;6.880;2023-08-06T12:28:26;26.50;45.50
12060;DHT22;6091;51.432;6.880;2023-08-06T12:30:53;26.40;45.40
12060;DHT22;6091;51.432;6.880;2023-08-06T12:33:22;26.40;45.50
12060;DHT22;6091;51.432;6.880;2023-08-06T12:35:49;26.40;45.50
12060;DHT22;6091;51.432;6.880;2023-08-06T12:38:16;26.40;45.50
12060;DHT22;6091;51.432;6.880;2023-08-06T12:40:43;26.40;45.50
12060;DHT22;6091;51.432;6.880;2023-08-06T12:43:10;26.40;45.60
12060;DHT22;6091;51.432;6.880;2023-08-06T12:45:39;26.40;45.60
12060;DHT22;6091;51.432;6.880;2023-08-06T12:48:06;26.40;45.50
12060;DHT22;6091;51.432;6.880;2023-08-06T12:50:33;26.30;45.50
12060;DHT22;6091;51.432;6.880;2023-08-06T12:53:01;26.40;45.50
12060;DHT22;6091;51.432;6.880;2023-08-06T12:55:28;26.40;45.60
12060;DHT22;6091;51.432;6.880;2023-08-06T12:57:59;26.40;45.70
12060;DHT22;6091;51.432;6.880;2023-08-06T13:00:26;26.40;45.60
12060;DHT22;6091;51.432;6.880;2023-08-06T13:02:53;26.40;45.60
12060;DHT22;6091;51.432;6.880;2023-08-06T13:05:24;26.40;45.60
12060;DHT22;6091;51.432;6.880;2023-08-06T13:07:51;26.40;45.70
12060;DHT22;6091;51.432;6.880;2023-08-06T13:10:18;26.40;45.70
12060;DHT22;6091;51.432;6.880;2023-08-06T13:12:46;26.40;45.70
12060;DHT22;6091;51.432;6.880;2023-08-06T13:15:13;26.40;45.80
12060;DHT22;6091;51.432;6.880;2023-08-06T13:17:41;26.40;45.80
12060;DHT22;6091;51.432;6.880;2023-08-06T13:20:10;26.40;45.80
12060;DHT22;6091;51.432;6.880;2023-08-06T13:22:37;26.40;45.90
12060;DHT22;6091;51.432;6.880;2023-08-06T13:25:05;26.40;45.90
12060;DHT22;6091;51.432;6.880;2023-08-06T13:27:32;26.40;45.90
12060;DHT22;6091;51.432;6.880;2023-08-06T13:29:59;26.40;45.90
12060;DHT22;6091;51.432;6.880;2023-08-06T13:32:26;26.40;45.80
12060;DHT22;6091;51.432;6.880;2023-08-06T13:34:53;26.40;45.80
12060;DHT22;6091;51.432;6.880;2023-08-06T13:37:22;26.40;45.80
12060;DHT22;6091;51.432;6.880;2023-08-06T13:39:49;26.40;45.80
12060;DHT22;6091;51.432;6.880;2023-08-06T13:42:16;26.40;45.80
12060;DHT22;6091;51.432;6.880;2023-08-06T13:44:43;26.40;45.80
12060;DHT22;6091;51.432;6.880;2023-08-06T13:47:10;26.40;45.70
12060;DHT22;6091;51.432;6.880;2023-08-06T13:49:37;26.40;45.70
12060;DHT22;6091;51.432;6.880;2023-08-06T13:52:05;26.40;45.70
12060;DHT22;6091;51.432;6.880;2023-08-06T13:54:47;26.40;45.70
12060;DHT22;6091;51.432;6.880;2023-08-06T13:57:15;26.50;45.70
12060;DHT22;6091;51.432;6.880;2023-08-06T13:59:44;26.50;45.70
12060;DHT22;6091;51.432;6.880;2023-08-06T14:02:11;26.50;45.70
12060;DHT22;6091;51.432;6.880;2023-08-06T14:04:38;26.50;45.60
12060;DHT22;6091;51.432;6.880;2023-08-06T14:07:06;26.50;45.60
12060;DHT22;6091;51.432;6.880;2023-08-06T14:09:33;26.50;45.60
12060;DHT22;6091;51.432;6.880;2023-08-06T14:12:01;26.50;46.20
12060;DHT22;6091;51.432;6.880;2023-08-06T14:14:28;26.50;45.70
12060;DHT22;6091;51.432;6.880;2023-08-06T14:16:55;26.50;45.70
12060;DHT22;6091;51.432;6.880;2023-08-06T14:19:23;26.50;45.60
12060;DHT22;6091;51.432;6.880;2023-08-06T14:21:50;26.50;45.60
12060;DHT22;6091;51.432;6.880;2023-08-06T14:24:18;26.50;45.60
12060;DHT22;6091;51.432;6.880;2023-08-06T14:26:45;26.50;45.60
12060;DHT22;6091;51.432;6.880;2023-08-06T14:29:12;26.60;45.70
12060;DHT22;6091;51.432;6.880;2023-08-06T14:31:40;26.60;45.70
12060;DHT22;6091;51.432;6.880;2023-08-06T14:34:07;26.60;45.70
12060;DHT22;6091;51.432;6.880;2023-08-06T14:36:34;26.60;45.70
12060;DHT22;6091;51.432;6.880;2023-08-06T14:39:01;26.60;45.70
12060;DHT22;6091;51.432;6.880;2023-08-06T14:41:31;26.60;45.70
12060;DHT22;6091;51.432;6.880;2023-08-06T14:43:58;26.60;45.70
12060;DHT22;6091;51.432;6.880;2023-08-06T14:46:25;26.70;45.70
12060;DHT22;6091;51.432;6.880;2023-08-06T14:48:53;26.60;45.70
12060;DHT22;6091;51.432;6.880;2023-08-06T14:51:21;26.70;45.80
12060;DHT22;6091;51.432;6.880;2023-08-06T14:53:48;26.80;45.80
12060;DHT22;6091;51.432;6.880;2023-08-06T14:56:15;26.80;45.80
12060;DHT22;6091;51.432;6.880;2023-08-06T14:58:42;26.90;45.80
12060;DHT22;6091;51.432;6.880;2023-08-06T15:01:09;26.90;45.80
12060;DHT22;6091;51.432;6.880;2023-08-06T15:03:36;27.00;45.70
12060;DHT22;6091;51.432;6.880;2023-08-06T15:06:03;27.00;45.60
12060;DHT22;6091;51.432;6.880;2023-08-06T15:08:30;27.20;45.60
12060;DHT22;6091;51.432;6.880;2023-08-06T15:10:57;27.20;45.50
12060;DHT22;6091;51.432;6.880;2023-08-06T15:13:25;27.20;45.40
12060;DHT22;6091;51.432;6.880;2023-08-06T15:15:52;27.20;45.40
12060;DHT22;6091;51.432;6.880;2023-08-06T15:18:19;27.20;45.30
12060;DHT22;6091;51.432;6.880;2023-08-06T15:20:46;27.20;45.90
12060;DHT22;6091;51.432;6.880;2023-08-06T15:23:13;27.30;45.30
12060;DHT22;6091;51.432;6.880;2023-08-06T15:25:41;27.20;45.10
12060;DHT22;6091;51.432;6.880;2023-08-06T15:28:08;27.30;45.20
12060;DHT22;6091;51.432;6.880;2023-08-06T15:30:35;27.20;45.00
12060;DHT22;6091;51.432;6.880;2023-08-06T15:33:02;27.20;45.00
12060;DHT22;6091;51.432;6.880;2023-08-06T15:35:29;27.20;45.00
12060;DHT22;6091;51.432;6.880;2023-08-06T15:37:56;27.20;44.90
12060;DHT22;6091;51.432;6.880;2023-08-06T15:40:23;27.20;44.90
12060;DHT22;6091;51.432;6.880;2023-08-06T15:42:50;27.20;44.80
12060;DHT22;6091;51.432;6.880;2023-08-06T15:45:18;27.20;44.80
12060;DHT22;6091;51.432;6.880;2023-08-06T15:47:45;27.20;44.80
12060;DHT22;6091;51.432;6.880;2023-08-06T15:50:12;27.10;44.80
12060;DHT22;6091;51.432;6.880;2023-08-06T15:52:39;27.10;44.80
12060;DHT22;6091;51.432;6.880;2023-08-06T15:55:06;27.10;44.80
12060;DHT22;6091;51.432;6.880;2023-08-06T15:57:34;27.00;44.70
12060;DHT22;6091;51.432;6.880;2023-08-06T16:00:04;27.00;44.70
12060;DHT22;6091;51.432;6.880;2023-08-06T16:02:32;27.00;44.70
12060;DHT22;6091;51.432;6.880;2023-08-06T16:04:59;26.90;44.60